Time;durP1;ratioP1;P1;durP2;ratioP2;P2;SDS_P1;SDS_P2;PMS_P1;PMS_P2;Temp;Humidity;BMP_temperature;BMP_pressure;BME280_temperature;BME280_humidity;BME280_pressure;Samples;Min_cycle;Max_cycle;Signal;HPM_P1;HPM_P2
2023/09/08 00:02:06;;;;;;;21.90;9.02;;;;;;;18.45;100.00;101507.47;6181667;23;20073;-83
2023/09/08 00:04:32;;;;;;;22.98;9.55;;;;;;;18.46;100.00;101511.94;6180116;23;20012;-83
2023/09/08 00:06:58;;;;;;;21.38;8.80;;;;;;;18.45;100.00;101509.34;6182149;23;20005;-84
2023/09/08 00:09:23;;;;;;;19.08;8.63;;;;;;;18.44;100.00;101516.63;6180110;23;20070;-82
2023/09/08 00:11:49;;;;;;;20.23;9.80;;;;;;;18.44;100.00;101518.50;6181623;23;20007;-83
2023/09/08 00:14:14;;;;;;;19.92;9.18;;;;;;;18.42;100.00;101523.22;6180044;23;20066;-83
2023/09/08 00:16:42;;;;;;;21.35;9.55;;;;;;;18.41;100.00;101516.94;6181493;23;20009;-83
2023/09/08 00:19:08;;;;;;;21.02;9.18;;;;;;;18.40;100.00;101517.94;6181180;23;20009;-83
2023/09/08 00:21:33;;;;;;;20.35;9.15;;;;;;;18.36;100.00;101521.97;6180172;23;20084;-83
2023/09/08 00:24:00;;;;;;;20.85;9.18;;;;;;;18.33;100.00;101524.97;6179882;23;20111;-83
2023/09/08 00:26:26;;;;;;;20.25;9.55;;;;;;;18.32;100.00;101526.84;6181575;23;20036;-83
2023/09/08 00:28:51;;;;;;;20.15;9.20;;;;;;;18.30;100.00;101528.00;6181447;23;20005;-83
2023/09/08 00:31:16;;;;;;;21.27;9.27;;;;;;;18.24;100.00;101520.41;6182280;23;20044;-82
2023/09/08 00:33:43;;;;;;;19.60;8.85;;;;;;;18.22;100.00;101527.88;6181029;23;19993;-83
2023/09/08 00:36:09;;;;;;;22.65;8.85;;;;;;;18.17;100.00;101528.31;6180524;23;20009;-83
2023/09/08 00:38:34;;;;;;;21.63;9.32;;;;;;;18.13;100.00;101530.47;6180624;23;20437;-83
2023/09/08 00:41:00;;;;;;;19.63;9.13;;;;;;;18.08;100.00;101527.34;6180818;23;19997;-83
2023/09/08 00:43:26;;;;;;;21.13;9.27;;;;;;;18.04;100.00;101528.63;6182311;23;20002;-83
2023/09/08 00:45:53;;;;;;;20.98;8.88;;;;;;;17.99;100.00;101522.75;6180663;23;20085;-83
2023/09/08 00:48:18;;;;;;;22.08;9.63;;;;;;;17.99;100.00;101522.75;6181849;23;20012;-83
2023/09/08 00:50:44;;;;;;;19.70;8.85;;;;;;;17.97;100.00;101520.16;6182200;23;20388;-82
2023/09/08 00:53:10;;;;;;;20.55;9.57;;;;;;;17.94;100.00;101519.63;6180469;23;20023;-84
2023/09/08 00:55:35;;;;;;;20.98;9.55;;;;;;;17.92;100.00;101522.47;6182543;23;20001;-83
2023/09/08 00:58:02;;;;;;;19.33;8.85;;;;;;;17.89;100.00;101511.88;6180687;23;20658;-83
2023/09/08 01:00:27;;;;;;;19.35;9.05;;;;;;;17.89;100.00;101516.41;6182734;23;20005;-84
2023/09/08 01:02:53;;;;;;;19.35;8.95;;;;;;;17.85;100.00;101526.75;6182118;23;20314;-84
2023/09/08 01:05:19;;;;;;;20.75;9.52;;;;;;;17.80;100.00;101523.56;6181284;23;20326;-77
2023/09/08 01:07:47;;;;;;;20.25;9.40;;;;;;;17.74;100.00;101513.28;6180570;23;20005;-77
2023/09/08 01:10:13;;;;;;;19.20;8.90;;;;;;;17.70;100.00;101515.44;6180802;23;20055;-76
2023/09/08 01:12:38;;;;;;;20.23;8.77;;;;;;;17.65;100.00;101509.56;6182560;23;20025;-76
2023/09/08 01:15:05;;;;;;;20.30;9.13;;;;;;;17.62;100.00;101515.28;6183001;23;20771;-76
2023/09/08 01:17:31;;;;;;;23.85;10.68;;;;;;;17.59;100.00;101515.56;6182855;23;20005;-76
2023/09/08 01:20:02;;;;;;;24.05;9.20;;;;;;;17.56;100.00;101519.44;6180741;23;20016;-76
2023/09/08 01:22:39;;;;;;;20.33;9.63;;;;;;;17.53;100.00;101517.00;6182195;23;20000;-77
2023/09/08 01:25:18;;;;;;;21.42;9.50;;;;;;;17.51;100.00;101513.56;6182708;23;20008;-76
2023/09/08 01:27:48;;;;;;;21.08;9.32;;;;;;;17.47;100.00;101523.84;6182930;23;20001;-77
2023/09/08 01:30:15;;;;;;;22.90;9.98;;;;;;;17.42;100.00;101520.72;6182863;23;20032;-77
2023/09/08 01:32:41;;;;;;;19.92;9.07;;;;;;;17.39;100.00;101525.56;6180036;23;20001;-76
2023/09/08 01:35:07;;;;;;;19.23;8.88;;;;;;;17.37;100.00;101527.56;6182375;23;20037;-77
2023/09/08 01:37:32;;;;;;;20.83;9.75;;;;;;;17.31;100.00;101523.56;6180619;23;20000;-76
2023/09/08 01:39:58;;;;;;;19.90;9.13;;;;;;;17.27;100.00;101520.25;6180144;23;20095;-77
2023/09/08 01:42:23;;;;;;;21.25;10.30;;;;;;;17.25;100.00;101526.84;6180560;23;20019;-77
2023/09/08 01:44:48;;;;;;;19.30;9.50;;;;;;;17.21;100.00;101522.69;6180915;23;20005;-77
2023/09/08 01:47:13;;;;;;;21.08;10.35;;;;;;;17.16;100.00;101527.66;6182272;23;20012;-77
2023/09/08 01:49:39;;;;;;;21.40;10.27;;;;;;;17.10;100.00;101513.66;6181759;23;20035;-76
2023/09/08 01:52:05;;;;;;;20.90;9.85;;;;;;;17.07;100.00;101515.75;6181564;23;20021;-78
2023/09/08 01:54:30;;;;;;;19.98;9.38;;;;;;;17.03;100.00;101507.03;6180341;23;20016;-76
2023/09/08 01:56:55;;;;;;;20.50;9.57;;;;;;;17.00;100.00;101504.63;6180034;23;20092;-76
2023/09/08 01:59:21;;;;;;;22.83;9.55;;;;;;;16.97;100.00;101510.31;6181878;23;20012;-76
2023/09/08 02:01:46;;;;;;;20.45;9.93;;;;;;;16.95;100.00;101509.59;6180719;23;20502;-77
2023/09/08 02:04:11;;;;;;;21.83;10.48;;;;;;;16.93;100.00;101504.28;6181229;23;20050;-76
2023/09/08 02:06:37;;;;;;;19.75;9.52;;;;;;;16.89;100.00;101510.13;6180168;23;20431;-76
2023/09/08 02:09:02;;;;;;;21.33;9.32;;;;;;;16.87;100.00;101513.00;6181834;23;20005;-76
2023/09/08 02:11:27;;;;;;;21.15;10.32;;;;;;;16.85;100.00;101511.38;6181649;23;20005;-78
2023/09/08 02:13:53;;;;;;;21.17;10.02;;;;;;;16.82;100.00;101507.06;6182097;23;20001;-77
2023/09/08 02:16:18;;;;;;;21.08;9.57;;;;;;;16.80;100.00;101514.50;6182182;23;20001;-76
2023/09/08 02:18:44;;;;;;;20.67;9.65;;;;;;;16.76;100.00;101503.06;6180770;23;20055;-76
2023/09/08 02:21:10;;;;;;;20.13;8.98;;;;;;;16.75;100.00;101514.91;6180855;23;20498;-76
2023/09/08 02:23:36;;;;;;;22.40;10.32;;;;;;;16.72;100.00;101503.47;6179750;23;20084;-77
2023/09/08 02:26:01;;;;;;;19.60;8.80;;;;;;;16.72;100.00;101508.88;6180005;23;20405;-77
2023/09/08 02:28:27;;;;;;;26.40;11.07;;;;;;;16.71;100.00;101505.31;6180599;23;20415;-77
2023/09/08 02:30:52;;;;;;;20.80;9.98;;;;;;;16.69;100.00;101501.91;6180388;23;20009;-77
2023/09/08 02:33:17;;;;;;;20.75;10.15;;;;;;;16.66;100.00;101502.19;6180900;23;20003;-76
2023/09/08 02:35:43;;;;;;;27.35;10.80;;;;;;;16.63;100.00;101494.28;6180219;23;20001;-76
2023/09/08 02:38:08;;;;;;;21.17;9.95;;;;;;;16.60;100.00;101491.84;6180319;23;20012;-77
2023/09/08 02:40:34;;;;;;;19.17;9.40;;;;;;;16.55;100.00;101502.25;6180945;23;20059;-76
2023/09/08 02:43:03;;;;;;;20.27;10.02;;;;;;;16.49;100.00;101506.38;6182124;23;20039;-77
2023/09/08 02:45:29;;;;;;;20.88;10.73;;;;;;;16.46;100.00;101495.78;6180570;23;20005;-76
2023/09/08 02:47:55;;;;;;;20.80;10.05;;;;;;;16.42;100.00;101503.31;6180835;23;20017;-76
2023/09/08 02:50:21;;;;;;;20.55;9.85;;;;;;;16.39;100.00;101506.31;6182132;23;20039;-76
2023/09/08 02:52:46;;;;;;;23.23;10.25;;;;;;;16.33;100.00;101496.00;6182793;23;20013;-76
2023/09/08 02:55:12;;;;;;;21.38;9.57;;;;;;;16.31;100.00;101500.72;6184137;23;20324;-77
2023/09/08 02:57:38;;;;;;;20.77;9.88;;;;;;;16.30;100.00;101503.56;6181972;23;20339;-76
2023/09/08 03:00:05;;;;;;;20.58;10.15;;;;;;;16.29;100.00;101508.13;6183470;23;20578;-77
2023/09/08 03:02:30;;;;;;;20.90;10.15;;;;;;;16.29;100.00;101499.97;6181945;23;20009;-76
2023/09/08 03:04:56;;;;;;;19.60;9.25;;;;;;;16.29;100.00;101499.13;6183863;23;20530;-76
2023/09/08 03:07:22;;;;;;;21.73;10.52;;;;;;;16.28;100.00;101502.81;6183675;23;20036;-77
2023/09/08 03:09:47;;;;;;;20.95;9.63;;;;;;;16.25;100.00;101498.53;6181870;23;20072;-76
2023/09/08 03:12:12;;;;;;;25.48;10.50;;;;;;;16.22;100.00;101498.78;6181684;23;20012;-76
2023/09/08 03:14:38;;;;;;;21.38;9.88;;;;;;;16.20;100.00;101500.78;6184082;23;20036;-77
2023/09/08 03:17:03;;;;;;;23.13;11.45;;;;;;;16.17;100.00;101498.34;6182430;23;20001;-76
2023/09/08 03:19:28;;;;;;;23.83;10.52;;;;;;;16.13;100.00;101499.59;6182016;23;20044;-76
2023/09/08 03:21:54;;;;;;;22.60;11.05;;;;;;;16.07;100.00;101501.84;6182441;23;20001;-76
2023/09/08 03:24:19;;;;;;;21.52;11.00;;;;;;;16.05;100.00;101494.84;6181896;23;20027;-82
2023/09/08 03:26:44;;;;;;;21.40;10.57;;;;;;;16.04;100.00;101493.97;6181471;23;20005;-83
2023/09/08 03:29:10;;;;;;;21.27;10.20;;;;;;;16.03;100.00;101494.09;6181261;23;20415;-83
2023/09/08 03:31:35;;;;;;;26.52;11.43;;;;;;;16.03;100.00;101500.41;6183027;23;20008;-83
2023/09/08 03:34:00;;;;;;;24.42;9.80;;;;;;;16.01;100.00;101494.25;6180096;23;20059;-83
2023/09/08 03:36:26;;;;;;;20.40;9.73;;;;;;;16.00;100.00;101495.25;6183021;23;20087;-82
2023/09/08 03:38:51;;;;;;;24.92;10.63;;;;;;;15.96;100.00;101485.66;6182116;23;20005;-82
2023/09/08 03:41:16;;;;;;;20.65;9.70;;;;;;;15.95;100.00;101486.63;6183248;23;20032;-82
2023/09/08 03:43:41;;;;;;;22.60;10.63;;;;;;;15.93;100.00;101493.19;6183145;23;20005;-82
2023/09/08 03:46:07;;;;;;;21.23;12.02;;;;;;;15.93;100.00;101487.75;6183421;23;20327;-82
2023/09/08 03:48:32;;;;;;;22.00;10.25;;;;;;;15.93;100.00;101485.03;6180306;23;20016;-83
2023/09/08 03:50:58;;;;;;;21.98;10.57;;;;;;;15.93;100.00;101485.94;6182280;23;20005;-82
2023/09/08 03:53:23;;;;;;;21.48;10.68;;;;;;;15.90;100.00;101481.63;6181175;23;20012;-82
2023/09/08 03:55:48;;;;;;;21.58;10.70;;;;;;;15.87;100.00;101483.72;6181633;23;20016;-82
2023/09/08 03:58:15;;;;;;;20.35;10.65;;;;;;;15.84;100.00;101483.97;6181430;23;19997;-81
2023/09/08 04:00:41;;;;;;;23.42;10.85;;;;;;;15.81;100.00;101484.25;6182177;23;20009;-81
2023/09/08 04:03:06;;;;;;;24.48;12.40;;;;;;;15.80;100.00;101483.41;6180488;23;20008;-82
2023/09/08 04:05:31;;;;;;;21.80;10.73;;;;;;;15.81;100.00;101484.25;6182969;23;20104;-82
2023/09/08 04:07:57;;;;;;;23.48;11.57;;;;;;;15.79;100.00;101475.41;6181038;23;20013;-82
2023/09/08 04:10:22;;;;;;;21.95;11.40;;;;;;;15.77;100.00;101477.34;6182162;23;20029;-82
2023/09/08 04:12:47;;;;;;;24.30;9.85;;;;;;;15.78;100.00;101485.34;6181292;23;20004;-83
2023/09/08 04:15:13;;;;;;;21.33;11.07;;;;;;;15.77;100.00;101482.75;6183119;23;20043;-82
2023/09/08 04:17:38;;;;;;;21.98;10.93;;;;;;;15.76;100.00;101478.34;6181097;23;20012;-83
2023/09/08 04:20:05;;;;;;;22.13;11.13;;;;;;;15.74;100.00;101481.19;6181270;23;20009;-82
2023/09/08 04:22:31;;;;;;;22.00;10.40;;;;;;;15.70;100.00;101477.88;6182771;23;20001;-82
2023/09/08 04:24:57;;;;;;;21.27;10.30;;;;;;;15.70;100.00;101477.00;6182150;23;20012;-82
2023/09/08 04:27:23;;;;;;;24.05;10.95;;;;;;;15.69;100.00;101478.84;6181449;23;20442;-83
2023/09/08 04:29:48;;;;;;;20.48;10.85;;;;;;;15.69;100.00;101476.13;6180298;23;20008;-82
2023/09/08 04:32:13;;;;;;;21.15;10.05;;;;;;;15.66;100.00;101465.56;6182274;23;20007;-82
2023/09/08 04:34:40;;;;;;;22.40;11.13;;;;;;;15.63;100.00;101470.41;6180393;23;20005;-76
2023/09/08 04:37:06;;;;;;;22.13;10.95;;;;;;;15.63;100.00;101475.81;6182509;23;20079;-76
2023/09/08 04:39:32;;;;;;;22.83;11.05;;;;;;;15.63;100.00;101476.66;6182831;23;20035;-77
2023/09/08 04:41:58;;;;;;;22.42;11.75;;;;;;;15.62;100.00;101471.38;6181557;23;20005;-77
2023/09/08 04:44:23;;;;;;;23.63;11.07;;;;;;;15.61;100.00;101473.22;6182846;23;20024;-76
2023/09/08 04:46:48;;;;;;;21.25;10.43;;;;;;;15.59;100.00;101474.34;6180996;23;20385;-76
2023/09/08 04:49:14;;;;;;;22.45;11.48;;;;;;;15.56;100.00;101472.75;6181987;23;20009;-76
2023/09/08 04:51:39;;;;;;;21.88;11.43;;;;;;;15.56;100.00;101470.03;6182028;23;20465;-77
2023/09/08 04:54:04;;;;;;;23.25;10.10;;;;;;;15.57;100.00;101476.34;6181012;23;20047;-76
2023/09/08 04:56:30;;;;;;;23.27;11.85;;;;;;;15.57;100.00;101470.91;6182803;23;20327;-76
2023/09/08 04:58:55;;;;;;;23.27;11.65;;;;;;;15.55;100.00;101479.19;6181204;23;20079;-76
2023/09/08 05:01:21;;;;;;;21.33;10.00;;;;;;;15.54;100.00;101488.28;6181895;23;20120;-76
2023/09/08 05:03:46;;;;;;;21.85;11.15;;;;;;;15.53;100.00;101481.13;6181025;23;20012;-76
2023/09/08 05:06:13;;;;;;;22.42;12.65;;;;;;;15.55;100.00;101484.59;6181477;23;20008;-77
2023/09/08 05:08:39;;;;;;;22.67;11.10;;;;;;;15.53;100.00;101483.84;6182682;23;20497;-76
2023/09/08 05:11:04;;;;;;;23.15;10.90;;;;;;;15.53;100.00;101483.84;6180940;23;20001;-76
2023/09/08 05:13:30;;;;;;;24.15;10.80;;;;;;;15.53;100.00;101484.72;6183359;23;20012;-76
2023/09/08 05:16:00;;;;;;;21.98;11.13;;;;;;;15.53;100.00;101481.13;6182647;23;20078;-76
2023/09/08 05:18:27;;;;;;;;;;;;;;;15.61;100.00;101484.06;6182786;23;20008;-76
2023/09/08 05:20:53;;;;;;;22.13;11.15;;;;;;;15.55;100.00;101484.59;6181019;23;19908;-76
2023/09/08 05:23:18;;;;;;;21.80;11.23;;;;;;;15.55;100.00;101490.00;6180680;23;20013;-76
2023/09/08 05:25:44;;;;;;;22.95;11.48;;;;;;;15.58;100.00;101489.75;6182968;23;20080;-77
2023/09/08 05:28:10;;;;;;;23.02;11.55;;;;;;;15.60;100.00;101486.91;6182600;23;20005;-76
2023/09/08 05:30:35;;;;;;;21.50;11.32;;;;;;;15.62;100.00;101485.78;6180661;23;20084;-76
2023/09/08 05:33:01;;;;;;;22.85;11.38;;;;;;;15.67;100.00;101486.25;6182502;23;20009;-76
2023/09/08 05:35:26;;;;;;;21.85;11.73;;;;;;;15.73;100.00;101495.72;6180867;23;20001;-76
2023/09/08 05:37:51;;;;;;;22.48;11.88;;;;;;;15.75;100.00;101487.47;6182033;23;20005;-76
2023/09/08 05:40:18;;;;;;;25.80;13.85;;;;;;;15.82;100.00;101496.81;6180939;23;20362;-76
2023/09/08 05:42:44;;;;;;;22.65;12.35;;;;;;;15.86;100.00;101493.72;6180185;23;20008;-76
2023/09/08 05:45:09;;;;;;;23.30;12.13;;;;;;;15.89;100.00;101498.88;6182128;23;20001;-76
2023/09/08 05:47:35;;;;;;;25.63;12.07;;;;;;;15.94;100.00;101505.75;6180903;23;20011;-76
2023/09/08 05:50:01;;;;;;;22.88;11.77;;;;;;;15.96;100.00;101496.50;6182089;23;20012;-76
2023/09/08 05:52:28;;;;;;;28.17;12.05;;;;;;;16.02;100.00;101504.09;6191434;23;20017;-76
2023/09/08 05:54:53;;;;;;;23.77;12.70;;;;;;;16.11;100.00;101496.16;6195213;23;20001;-77
2023/09/08 05:57:18;;;;;;;22.52;12.13;;;;;;;16.18;100.00;101505.47;6207380;23;20060;-77
2023/09/08 05:59:44;;;;;;;22.77;11.75;;;;;;;16.25;100.00;101493.09;6208738;23;20005;-77
2023/09/08 06:02:09;;;;;;;24.77;12.13;;;;;;;16.31;100.00;101495.28;6199451;23;20004;-76
2023/09/08 06:04:34;;;;;;;23.30;11.95;;;;;;;16.38;100.00;101504.63;6198608;23;20451;-75
2023/09/08 06:07:00;;;;;;;25.10;12.65;;;;;;;16.46;100.00;101501.22;6195360;23;20001;-76
2023/09/08 06:09:25;;;;;;;23.25;13.10;;;;;;;16.52;100.00;101495.25;6197240;23;20001;-75
2023/09/08 06:11:50;;;;;;;22.42;11.63;;;;;;;16.57;100.00;101498.44;6195864;23;20561;-75
2023/09/08 06:14:15;;;;;;;24.83;12.63;;;;;;;16.63;100.00;101512.44;6193131;23;20061;-76
2023/09/08 06:16:41;;;;;;;23.25;12.98;;;;;;;16.68;100.00;101516.47;6194279;23;20504;-77
2023/09/08 06:19:07;;;;;;;25.63;12.00;;;;;;;16.74;100.00;101510.47;6192957;23;20089;-75
2023/09/08 06:21:32;;;;;;;23.35;12.75;;;;;;;16.77;100.00;101515.63;6193147;23;20008;-76
2023/09/08 06:23:57;;;;;;;23.80;12.50;;;;;;;16.84;100.00;101515.06;6191962;23;20004;-75
2023/09/08 06:26:23;;;;;;;21.20;10.27;;;;;;;16.86;100.00;101519.38;6193716;23;20016;-76
2023/09/08 06:28:48;;;;;;;23.20;11.07;;;;;;;16.91;100.00;101519.00;6197792;23;20052;-76
2023/09/08 06:31:14;;;;;;;23.45;13.52;;;;;;;16.94;100.00;101519.59;6197320;23;20015;-77
2023/09/08 06:33:40;;;;;;;25.00;12.75;;;;;;;17.01;100.00;101516.31;6196948;23;20233;-77
2023/09/08 06:36:06;;;;;;;23.45;12.60;;;;;;;17.05;100.00;101515.91;6195926;23;20031;-75
2023/09/08 06:38:32;;;;;;;19.63;9.10;;;;;;;17.05;100.00;101521.34;6195772;23;20009;-77
2023/09/08 06:40:57;;;;;;;21.70;11.27;;;;;;;17.09;100.00;101519.22;6200046;23;20008;-75
2023/09/08 06:43:23;;;;;;;20.35;9.57;;;;;;;17.11;100.00;101517.22;6202368;23;20008;-76
2023/09/08 06:45:49;;;;;;;20.15;9.05;;;;;;;17.16;100.00;101519.50;6206621;23;20025;-77
2023/09/08 06:48:15;;;;;;;20.50;8.98;;;;;;;17.20;100.00;101523.66;6209687;23;20111;-79
2023/09/08 06:50:40;;;;;;;24.45;13.13;;;;;;;17.25;100.00;101516.81;6209281;23;20035;-79
2023/09/08 06:53:06;;;;;;;23.63;12.10;;;;;;;17.28;100.00;101526.56;6206376;23;20024;-77
2023/09/08 06:55:31;;;;;;;22.35;12.13;;;;;;;17.32;100.00;101528.00;6208061;23;20013;-78
2023/09/08 06:57:57;;;;;;;21.98;10.27;;;;;;;17.35;100.00;101537.69;6208314;23;19989;-79
2023/09/08 07:00:22;;;;;;;21.60;11.13;;;;;;;17.39;100.00;101529.13;6203474;23;20036;-77
2023/09/08 07:02:49;;;;;;;21.15;10.15;;;;;;;17.42;100.00;101522.56;6206191;23;20001;-81
2023/09/08 07:05:15;;;;;;;22.45;11.57;;;;;;;17.51;100.00;101529.88;6187295;23;20096;-73
2023/09/08 07:07:41;;;;;;;19.60;8.52;;;;;;;17.47;100.00;101523.84;6179492;23;20020;-73
2023/09/08 07:10:07;;;;;;;20.67;8.73;;;;;;;17.50;100.00;101535.44;6179704;23;20245;-73
2023/09/08 07:12:32;;;;;;;20.30;9.02;;;;;;;17.54;100.00;101531.44;6180325;23;20005;-73
2023/09/08 07:14:59;;;;;;;21.90;10.98;;;;;;;17.61;100.00;101529.88;6180323;23;20020;-73
2023/09/08 07:17:25;;;;;;;20.92;9.43;;;;;;;17.65;100.00;101536.75;6179855;23;20020;-74
2023/09/08 07:19:50;;;;;;;22.70;8.90;;;;;;;17.67;100.00;101539.31;6179976;23;20009;-73
2023/09/08 07:22:15;;;;;;;19.52;8.95;;;;;;;17.69;100.00;101532.75;6180777;23;20347;-73
2023/09/08 07:24:41;;;;;;;20.23;9.27;;;;;;;17.72;100.00;101534.34;6180272;23;20015;-73
2023/09/08 07:27:06;;;;;;;19.13;8.85;;;;;;;17.75;100.00;101532.16;6178828;23;20043;-73
2023/09/08 07:29:32;;;;;;;22.20;9.00;;;;;;;17.81;100.00;101537.03;6180270;23;20023;-73
2023/09/08 07:31:57;;;;;;;22.92;10.85;;;;;;;17.90;100.00;101535.34;6179428;23;20005;-73
2023/09/08 07:34:23;;;;;;;21.60;9.50;;;;;;;17.92;100.00;101538.78;6180391;23;20036;-74
2023/09/08 07:36:48;;;;;;;19.60;8.90;;;;;;;17.95;100.00;101541.22;6180260;23;20008;-73
2023/09/08 07:39:13;;;;;;;20.67;8.50;;;;;;;17.98;100.00;101543.66;6178161;23;20019;-73
2023/09/08 07:41:40;;;;;;;19.30;8.10;;;;;;;18.03;100.00;101537.78;6180128;23;20505;-73
2023/09/08 07:44:06;;;;;;;20.27;9.48;;;;;;;18.12;100.00;101531.44;6179152;23;20112;-74
2023/09/08 07:46:32;;;;;;;19.15;8.93;;;;;;;18.13;100.00;101535.91;6179883;23;20009;-75
2023/09/08 07:48:59;;;;;;;18.45;7.85;;;;;;;18.18;100.00;101538.19;6180633;23;20027;-77
2023/09/08 07:51:25;;;;;;;21.75;10.00;;;;;;;18.28;100.00;101530.84;6177272;23;20032;-73
2023/09/08 07:53:50;;;;;;;20.80;9.82;;;;;;;18.30;100.00;101534.31;6179141;23;20035;-74
2023/09/08 07:56:15;;;;;;;19.95;8.50;;;;;;;18.37;100.00;101531.84;6179720;23;20370;-73
2023/09/08 07:58:41;;;;;;;21.95;10.07;;;;;;;18.48;100.00;101534.41;6178278;23;20004;-74
2023/09/08 08:01:06;;;;;;;18.90;8.27;;;;;;;18.55;100.00;101529.22;6179202;23;20397;-73
2023/09/08 08:03:32;;;;;;;19.98;8.07;;;;;;;18.59;100.00;101518.88;6176050;23;20051;-75
2023/09/08 08:06:00;;;;;;;22.67;11.10;;;;;;;18.76;100.00;101522.72;6177295;23;20086;-74
2023/09/08 08:08:25;;;;;;;20.08;9.05;;;;;;;18.73;100.00;101526.56;6178352;23;20021;-74
2023/09/08 08:10:50;;;;;;;20.25;8.60;;;;;;;18.76;100.00;101523.56;6179620;23;20012;-76
2023/09/08 08:13:16;;;;;;;23.35;8.98;;;;;;;18.78;100.00;101524.25;6176301;23;20016;-73
2023/09/08 08:15:47;;;;;;;19.40;8.35;;;;;;;18.91;100.00;101523.09;6177553;23;20387;-76
2023/09/08 08:18:12;;;;;;;19.33;9.15;;;;;;;18.98;100.00;101525.06;6176429;23;20009;-73
2023/09/08 08:20:38;;;;;;;19.67;7.97;;;;;;;19.02;100.00;101522.91;6177980;23;20001;-73
2023/09/08 08:23:05;;;;;;;20.58;8.32;;;;;;;19.12;100.00;101531.00;6177278;23;20005;-73
2023/09/08 08:25:32;;;;;;;18.50;8.15;;;;;;;19.16;99.77;101536.00;6177984;23;20021;-73
2023/09/08 08:27:58;;;;;;;18.08;7.63;;;;;;;19.18;99.26;101533.13;6178031;23;20501;-73
2023/09/08 08:30:24;;;;;;;21.20;8.45;;;;;;;19.24;100.00;101529.81;6177884;23;20009;-72
2023/09/08 08:32:51;;;;;;;18.70;7.32;;;;;;;19.30;100.00;101539.25;6179697;23;20001;-72
2023/09/08 08:35:16;;;;;;;19.80;8.50;;;;;;;19.32;100.00;101532.59;6179007;23;20072;-72
2023/09/08 08:37:42;;;;;;;19.52;7.82;;;;;;;19.34;100.00;101536.03;6179640;23;20382;-72
2023/09/08 08:40:10;;;;;;;19.02;8.70;;;;;;;19.38;100.00;101534.69;6177488;23;20315;-72
2023/09/08 08:42:36;;;;;;;18.60;8.45;;;;;;;19.39;100.00;101536.44;6178773;23;20375;-72
2023/09/08 08:45:03;;;;;;;18.00;8.15;;;;;;;19.44;100.00;101540.56;6174304;23;20024;-72
2023/09/08 08:47:29;;;;;;;20.83;9.18;;;;;;;19.65;100.00;101534.81;6175618;23;20000;-72
2023/09/08 08:49:58;;;;;;;20.30;9.18;;;;;;;19.63;100.00;101534.13;6178652;23;20032;-72
2023/09/08 08:52:24;;;;;;;20.88;9.15;;;;;;;19.70;100.00;101532.47;6179580;23;20000;-72
2023/09/08 08:54:49;;;;;;;19.05;8.43;;;;;;;19.71;100.00;101534.22;6179748;23;20015;-73
2023/09/08 08:57:15;;;;;;;19.65;8.88;;;;;;;19.82;100.00;101528.53;6179566;23;20040;-72
2023/09/08 08:59:41;;;;;;;23.38;9.55;;;;;;;19.86;100.00;101529.94;6179469;23;20048;-72
2023/09/08 09:02:11;;;;;;;20.83;9.27;;;;;;;19.94;100.00;101520.94;6179288;23;20001;-72
2023/09/08 09:04:37;;;;;;;17.55;7.45;;;;;;;19.90;100.00;101528.59;6176966;23;20017;-72
2023/09/08 09:07:03;;;;;;;19.70;8.02;;;;;;;19.94;100.00;101529.13;6177249;23;20123;-72
2023/09/08 09:09:29;;;;;;;18.15;8.13;;;;;;;20.00;100.00;101524.94;6177131;23;20005;-72
2023/09/08 09:11:54;;;;;;;20.23;8.48;;;;;;;20.02;100.00;101528.38;6177209;23;20012;-72
2023/09/08 09:14:20;;;;;;;19.23;7.88;;;;;;;20.06;100.00;101527.03;6177105;23;20163;-72
2023/09/08 09:16:47;;;;;;;22.80;7.95;;;;;;;20.07;100.00;101526.88;6178397;23;20004;-73
2023/09/08 09:19:31;;;;;;;18.70;7.97;;;;;;;20.13;100.00;101530.81;6178744;23;20423;-72
2023/09/08 09:21:57;;;;;;;18.77;7.85;;;;;;;20.15;100.00;101525.22;6177523;23;20407;-72
2023/09/08 09:24:36;;;;;;;17.77;7.57;;;;;;;20.19;100.00;101522.03;6176955;23;20004;-72
2023/09/08 09:27:05;;;;;;;19.02;8.07;;;;;;;20.24;100.00;101522.38;6175919;23;20011;-72
2023/09/08 09:29:31;;;;;;;20.05;8.80;;;;;;;20.33;100.00;101522.44;6176869;23;20012;-72
2023/09/08 09:32:05;;;;;;;19.92;9.07;;;;;;;20.35;100.00;101525.88;6177269;23;20005;-72
2023/09/08 09:34:31;;;;;;;18.17;8.57;;;;;;;20.42;100.00;101522.34;6179413;23;20009;-72
2023/09/08 09:36:56;;;;;;;18.50;8.35;;;;;;;20.40;100.00;101516.19;6178660;23;20031;-72
2023/09/08 09:39:24;;;;;;;17.45;7.78;;;;;;;20.42;100.00;101530.56;6178449;23;20012;-72
2023/09/08 09:41:56;;;;;;;19.08;8.52;;;;;;;20.45;100.00;101523.03;6176592;23;20029;-72
2023/09/08 09:44:22;;;;;;;20.98;9.70;;;;;;;20.70;100.00;101522.19;6178873;23;20009;-72
2023/09/08 09:46:48;;;;;;;21.27;8.70;;;;;;;20.77;99.51;101522.41;6179207;23;20001;-72
2023/09/08 09:49:19;;;;;;;21.10;9.82;;;;;;;21.01;99.23;101518.94;6178228;23;20316;-72
2023/09/08 09:51:50;;;;;;;19.05;8.00;;;;;;;20.95;99.40;101514.97;6176886;23;20037;-72
2023/09/08 09:54:16;;;;;;;22.67;10.07;;;;;;;21.42;99.61;101520.91;6178351;23;20342;-72
2023/09/08 09:56:45;;;;;;;19.48;8.30;;;;;;;21.43;96.64;101528.09;6178124;23;20067;-72
2023/09/08 09:59:15;;;;;;;22.03;8.53;;;;;;;21.41;98.18;101530.16;6180637;23;20048;-73
2023/09/08 10:01:42;;;;;;;19.77;8.82;;;;;;;21.33;96.83;101528.22;6179365;23;20623;-71
2023/09/08 10:04:08;;;;;;;20.40;8.35;;;;;;;21.42;95.76;101521.78;6181456;23;20040;-70
2023/09/08 10:06:34;;;;;;;18.42;7.57;;;;;;;21.56;94.64;101527.63;6181709;23;20382;-71
2023/09/08 10:09:04;;;;;;;20.10;8.90;;;;;;;21.57;95.81;101519.28;6180196;23;20339;-71
2023/09/08 10:11:46;;;;;;;20.02;8.05;;;;;;;21.58;95.37;101526.47;6180560;23;20302;-71
2023/09/08 10:14:13;;;;;;;21.90;7.78;;;;;;;21.53;95.02;101528.81;6180237;23;20011;-71
2023/09/08 10:16:40;;;;;;;21.70;9.35;;;;;;;21.67;95.85;101519.13;6181966;23;20308;-71
2023/09/08 10:19:09;;;;;;;18.65;7.95;;;;;;;21.60;94.19;101523.56;6182321;23;20005;-71
2023/09/08 10:21:42;;;;;;;18.38;8.30;;;;;;;21.57;94.62;101522.00;6180177;23;20456;-71
2023/09/08 10:24:13;;;;;;;17.58;8.82;;;;;;;21.66;96.40;101522.03;6181716;23;20096;-71
2023/09/08 10:26:43;;;;;;;18.35;7.95;;;;;;;21.60;93.86;101524.41;6179657;23;20005;-71
2023/09/08 10:29:09;;;;;;;17.95;8.32;;;;;;;21.57;94.60;101526.63;6182127;23;20001;-77
2023/09/08 10:31:36;;;;;;;18.02;7.57;;;;;;;21.51;96.76;101514.47;6179991;23;20009;-74
2023/09/08 10:34:02;;;;;;;17.92;7.47;;;;;;;21.48;94.86;101525.72;6180004;23;20427;-77
2023/09/08 10:36:28;;;;;;;18.27;9.02;;;;;;;21.57;100.00;101518.41;6182085;23;20311;-76
2023/09/08 10:38:56;;;;;;;16.60;7.32;;;;;;;21.56;95.19;101517.53;6181346;23;20016;-77
2023/09/08 10:41:21;;;;;;;22.40;8.73;;;;;;;21.62;97.97;101518.75;6181622;23;20001;-76
2023/09/08 10:43:55;;;;;;;16.67;7.20;;;;;;;21.57;94.48;101516.53;6180925;23;20299;-75
2023/09/08 10:46:26;;;;;;;18.23;7.72;;;;;;;21.59;93.94;101519.94;6181638;23;20111;-78
2023/09/08 10:49:04;;;;;;;22.67;10.20;;;;;;;21.84;95.47;101519.97;6179620;23;20001;-76
2023/09/08 10:51:29;;;;;;;16.58;7.20;;;;;;;21.77;92.74;101510.72;6181052;23;20001;-74
2023/09/08 10:53:55;;;;;;;20.42;8.10;;;;;;;21.75;93.60;101510.06;6177232;23;20004;-74
2023/09/08 10:56:20;;;;;;;17.90;7.30;;;;;;;21.74;94.59;101513.81;6177339;23;20008;-73
2023/09/08 10:58:52;;;;;;;18.10;7.57;;;;;;;21.75;94.56;101515.53;6177267;23;20009;-72
2023/09/08 11:01:22;;;;;;;18.25;7.63;;;;;;;21.76;93.72;101511.78;6179327;23;20453;-70
2023/09/08 11:03:49;;;;;;;15.52;7.28;;;;;;;21.86;94.78;101506.09;6179607;23;20403;-70